createdAt,value
2023-02-15T00:02:04.457Z,99192.75
2023-02-15T00:04:47.058Z,99198.22
2023-02-15T00:07:19.699Z,99191.94
2023-02-15T00:09:50.923Z,99184.50
2023-02-15T00:12:20.989Z,99190.78
2023-02-15T00:14:54.256Z,99181.75
2023-02-15T00:17:25.220Z,99177.84
2023-02-15T00:19:55.539Z,99181.75
2023-02-15T00:22:25.892Z,99180.19
2023-02-15T00:24:56.181Z,99177.44
2023-02-15T00:27:27.113Z,99180.56
2023-02-15T00:30:00.137Z,99165.31
2023-02-15T00:32:30.521Z,99170.38
2023-02-15T00:35:00.778Z,99164.91
2023-02-15T00:37:31.035Z,99165.28
2023-02-15T00:40:01.397Z,99163.34
2023-02-15T00:42:31.709Z,99153.97
2023-02-15T00:45:04.666Z,99156.31
2023-02-15T00:47:36.136Z,99150.81
2023-02-15T00:50:07.006Z,99154.34
2023-02-15T00:52:37.392Z,99157.09
2023-02-15T00:55:08.690Z,99164.50
2023-02-15T00:57:39.025Z,99152.03
2023-02-15T01:00:14.094Z,99159.44
2023-02-15T01:02:44.433Z,99165.31
2023-02-15T01:05:14.813Z,99162.16
2023-02-15T01:07:45.152Z,99165.28
2023-02-15T01:10:15.457Z,99160.59
2023-02-15T01:12:45.841Z,99159.03
2023-02-15T01:15:18.777Z,99162.16
2023-02-15T01:17:53.654Z,99163.31
2023-02-15T01:20:28.029Z,99159.78
2023-02-15T01:22:59.113Z,99148.09
2023-02-15T01:25:29.949Z,99153.16
2023-02-15T01:28:00.416Z,99148.84
2023-02-15T01:30:33.529Z,99141.44
2023-02-15T01:33:04.592Z,99143.00
2023-02-15T01:35:35.192Z,99139.47
2023-02-15T01:38:05.669Z,99139.06
2023-02-15T01:40:35.889Z,99128.91
2023-02-15T01:43:06.297Z,99128.91
2023-02-15T01:45:39.988Z,99129.69
2023-02-15T01:48:24.999Z,99124.22
2023-02-15T01:50:59.908Z,99110.53
2023-02-15T01:53:36.066Z,99108.97
2023-02-15T01:56:11.852Z,99111.69
2023-02-15T01:58:42.944Z,99103.44
2023-02-15T02:01:16.104Z,99100.34
2023-02-15T02:04:02.682Z,99102.66
2023-02-15T02:06:36.794Z,99098.75
2023-02-15T02:09:07.530Z,99093.31
2023-02-15T02:11:39.016Z,99092.53
2023-02-15T02:14:09.546Z,99097.19
2023-02-15T02:16:56.794Z,99088.97
2023-02-15T02:19:57.198Z,99088.59
2023-02-15T02:23:09.897Z,99090.13
2023-02-15T02:26:21.426Z,99081.56
2023-02-15T02:29:38.309Z,99081.16
2023-02-15T02:33:03.687Z,99076.44
2023-02-15T02:35:42.755Z,99072.13
2023-02-15T02:38:24.125Z,99070.94
2023-02-15T02:41:06.512Z,99065.09
2023-02-15T02:43:42.479Z,99066.25
2023-02-15T02:46:21.829Z,99065.09
2023-02-15T02:48:55.518Z,99058.47
2023-02-15T02:51:25.890Z,99061.97
2023-02-15T02:54:00.398Z,99053.75
2023-02-15T02:56:34.773Z,99045.19
2023-02-15T02:59:10.165Z,99052.19
2023-02-15T03:01:46.564Z,99056.88
2023-02-15T03:04:23.959Z,99052.53
2023-02-15T03:06:59.275Z,99056.84
2023-02-15T03:09:35.835Z,99050.22
2023-02-15T03:12:07.154Z,99049.44
2023-02-15T03:14:43.104Z,99045.13
2023-02-15T03:17:16.327Z,99043.59
2023-02-15T03:19:51.738Z,99044.75
2023-02-15T03:22:27.368Z,99038.50
2023-02-15T03:25:05.378Z,99042.00
2023-02-15T03:27:41.992Z,99034.97
2023-02-15T03:30:16.205Z,99035.38
2023-02-15T03:32:49.024Z,99038.88
2023-02-15T03:35:26.316Z,99036.13
2023-02-15T03:38:01.729Z,99038.88
2023-02-15T03:40:49.159Z,99027.13
2023-02-15T03:43:27.097Z,99031.81
2023-02-15T03:46:05.528Z,99026.72
2023-02-15T03:48:41.618Z,99039.59
2023-02-15T03:51:34.096Z,99039.22
2023-02-15T03:54:07.197Z,99024.78
2023-02-15T03:56:39.755Z,99027.88
2023-02-15T03:59:23.625Z,99032.19
2023-02-15T04:02:11.395Z,99035.28
2023-02-15T04:04:45.774Z,99028.63
2023-02-15T04:07:18.874Z,99030.56
2023-02-15T04:10:01.606Z,99025.88
2023-02-15T04:12:31.879Z,99030.16
2023-02-15T04:15:14.554Z,99027.03
2023-02-15T04:17:44.862Z,99025.06
2023-02-15T04:20:28.072Z,99022.72
2023-02-15T04:23:13.336Z,99021.97
2023-02-15T04:25:43.651Z,99021.97
2023-02-15T04:28:13.870Z,99025.50
2023-02-15T04:30:44.178Z,99021.97
2023-02-15T04:33:14.495Z,99022.75
2023-02-15T04:35:46.075Z,99020.03
2023-02-15T04:38:18.989Z,99017.28
2023-02-15T04:40:53.611Z,99013.75
2023-02-15T04:43:24.103Z,99016.47
2023-02-15T04:45:55.192Z,99008.25
2023-02-15T04:48:25.572Z,99007.06
2023-02-15T04:50:55.815Z,99005.88
2023-02-15T04:53:28.726Z,98996.16
2023-02-15T04:55:59.417Z,98996.16
2023-02-15T04:58:29.863Z,99000.78
2023-02-15T05:01:01.632Z,98996.91
2023-02-15T05:03:31.972Z,98997.69
2023-02-15T05:06:02.676Z,98997.28
2023-02-15T05:08:36.172Z,98992.19
2023-02-15T05:11:06.493Z,98989.81
2023-02-15T05:13:36.772Z,98995.28
2023-02-15T05:16:08.074Z,98998.78
2023-02-15T05:18:38.399Z,98995.28
2023-02-15T05:21:08.709Z,98984.34
2023-02-15T05:23:41.632Z,98989.78
2023-02-15T05:26:35.359Z,98991.72
2023-02-15T05:29:06.001Z,98990.94
2023-02-15T05:31:37.053Z,98988.63
2023-02-15T05:34:07.366Z,98996.81
2023-02-15T05:36:37.710Z,98990.56
2023-02-15T05:39:10.686Z,98997.59
2023-02-15T05:41:41.082Z,98994.44
2023-02-15T05:44:11.381Z,98999.53
2023-02-15T05:46:41.736Z,98999.53
2023-02-15T05:49:12.097Z,98989.72
2023-02-15T05:51:42.476Z,98997.16
2023-02-15T05:54:15.358Z,98994.44
2023-02-15T05:56:45.766Z,98992.09
2023-02-15T05:59:16.607Z,98995.56
2023-02-15T06:01:47.019Z,99001.41
2023-02-15T06:04:17.387Z,99002.97
2023-02-15T06:06:47.755Z,99000.63
2023-02-15T06:09:21.531Z,98998.72
2023-02-15T06:11:51.834Z,98997.13
2023-02-15T06:14:22.292Z,98997.91
2023-02-15T06:16:52.677Z,98995.97
2023-02-15T06:19:23.777Z,99002.22
2023-02-15T06:21:54.851Z,99002.22
2023-02-15T06:24:27.992Z,99001.41
2023-02-15T06:26:58.409Z,99008.41
2023-02-15T06:29:28.869Z,99006.09
2023-02-15T06:31:59.291Z,99006.09
2023-02-15T06:34:29.710Z,99004.56
2023-02-15T06:37:00.145Z,99000.28
2023-02-15T06:39:33.180Z,99002.25
2023-02-15T06:42:03.554Z,98997.19
2023-02-15T06:44:33.930Z,98999.16
2023-02-15T06:47:04.237Z,98997.59
2023-02-15T06:49:34.855Z,98993.72
2023-02-15T06:52:05.190Z,98991.00
2023-02-15T06:54:38.132Z,98991.81
2023-02-15T06:57:08.552Z,98995.78
2023-02-15T06:59:38.979Z,98992.31
2023-02-15T07:02:09.569Z,98993.13
2023-02-15T07:04:40.338Z,98993.56
2023-02-15T07:07:13.988Z,98994.75
2023-02-15T07:09:46.872Z,98993.63
2023-02-15T07:12:29.621Z,99002.25
2023-02-15T07:14:59.900Z,98996.00
2023-02-15T07:17:35.915Z,98989.00
2023-02-15T07:20:09.472Z,98980.38
2023-02-15T07:22:40.271Z,98973.31
2023-02-15T07:25:15.434Z,98971.69
2023-02-15T07:27:46.052Z,98973.53
2023-02-15T07:30:20.332Z,98967.22
2023-02-15T07:33:05.238Z,98964.75
2023-02-15T07:35:36.243Z,98951.72
2023-02-15T07:38:06.611Z,98955.56
2023-02-15T07:40:39.534Z,98944.03
2023-02-15T07:43:09.872Z,98952.06
2023-02-15T07:45:40.406Z,98944.38
2023-02-15T07:48:11.428Z,98942.22
2023-02-15T07:50:41.824Z,98936.19
2023-02-15T07:53:12.223Z,98933.84
2023-02-15T07:55:45.217Z,98919.22
2023-02-15T07:58:15.522Z,98922.63
2023-02-15T08:01:02.849Z,98919.25
2023-02-15T08:03:33.308Z,98919.09
2023-02-15T08:06:04.294Z,98921.38
2023-02-15T08:08:34.501Z,98914.28
2023-02-15T08:11:23.060Z,98915.03
2023-02-15T08:14:00.493Z,98911.78
2023-02-15T08:16:35.067Z,98908.56
2023-02-15T08:19:08.220Z,98910.06
2023-02-15T08:21:42.518Z,98909.94
2023-02-15T08:24:14.533Z,98907.72
2023-02-15T08:26:48.856Z,98900.31
2023-02-15T08:29:22.403Z,98897.88
2023-02-15T08:31:53.320Z,98895.47
2023-02-15T08:34:24.302Z,98897.66
2023-02-15T08:36:55.104Z,98898.91
2023-02-15T08:39:25.827Z,98886.91
2023-02-15T08:41:59.129Z,98888.06
2023-02-15T08:44:30.256Z,98885.78
2023-02-15T08:47:05.082Z,98873.22
2023-02-15T08:49:36.031Z,98869.78
2023-02-15T08:52:06.068Z,98873.84
2023-02-15T08:54:36.557Z,98873.63
2023-02-15T08:57:10.752Z,98872.03
2023-02-15T08:59:41.139Z,98872.44
2023-02-15T09:02:14.581Z,98872.75
2023-02-15T09:04:45.018Z,98868.84
2023-02-15T09:07:15.491Z,98871.44
2023-02-15T09:09:46.548Z,98862.88
2023-02-15T09:12:19.654Z,98869.66
2023-02-15T09:14:50.083Z,98866.50
2023-02-15T09:17:20.489Z,98858.06
2023-02-15T09:19:50.892Z,98856.66
2023-02-15T09:22:21.240Z,98855.34
2023-02-15T09:24:51.643Z,98857.47
2023-02-15T09:27:24.585Z,98851.59
2023-02-15T09:29:55.136Z,98857.22
2023-02-15T09:32:25.630Z,98857.72
2023-02-15T09:34:56.064Z,98850.56
2023-02-15T09:37:26.555Z,98845.69
2023-02-15T09:39:56.953Z,98842.06
2023-02-15T09:42:48.368Z,98843.06
2023-02-15T09:45:32.555Z,98843.38
2023-02-15T09:48:48.855Z,98839.22
2023-02-15T09:51:46.991Z,98841.31
2023-02-15T09:54:37.703Z,98838.03
2023-02-15T09:57:18.555Z,98843.66
2023-02-15T10:00:05.277Z,98838.53
2023-02-15T10:03:08.773Z,98835.75
2023-02-15T10:05:53.116Z,98840.34
2023-02-15T10:09:02.397Z,98834.44
2023-02-15T10:11:55.214Z,98827.78
2023-02-15T10:15:08.340Z,98823.72
2023-02-15T10:18:00.395Z,98822.72
2023-02-15T10:20:43.277Z,98817.78
2023-02-15T10:23:35.236Z,98816.25
2023-02-15T10:26:17.017Z,98823.44
2023-02-15T10:28:53.094Z,98813.94
2023-02-15T10:31:43.826Z,98813.19
2023-02-15T10:34:20.059Z,98811.09
2023-02-15T10:37:19.685Z,98808.91
2023-02-15T10:40:03.248Z,98802.31
2023-02-15T10:42:45.418Z,98797.34
2023-02-15T10:45:29.805Z,98788.78
2023-02-15T10:48:28.960Z,98787.53
2023-02-15T10:51:03.487Z,98790.69
2023-02-15T10:53:51.042Z,98790.72
2023-02-15T10:56:29.532Z,98782.66
2023-02-15T10:59:37.522Z,98782.03
2023-02-15T11:02:23.333Z,98780.56
2023-02-15T11:05:07.950Z,98788.59
2023-02-15T11:07:44.987Z,98779.06
2023-02-15T11:10:32.526Z,98777.97
2023-02-15T11:13:11.918Z,98785.75
2023-02-15T11:15:48.294Z,98778.41
2023-02-15T11:18:29.117Z,98778.16
2023-02-15T11:21:06.613Z,98780.34
2023-02-15T11:23:45.679Z,98775.53
2023-02-15T11:26:21.071Z,98769.28
2023-02-15T11:28:58.116Z,98764.03
2023-02-15T11:31:39.037Z,98760.97
2023-02-15T11:34:17.900Z,98762.88
2023-02-15T11:36:54.229Z,98762.34
2023-02-15T11:39:25.807Z,98755.53
2023-02-15T11:42:01.269Z,98747.00
2023-02-15T11:44:36.999Z,98743.34
2023-02-15T11:47:11.561Z,98745.19
2023-02-15T11:49:43.337Z,98735.69
2023-02-15T11:52:20.554Z,98738.97
2023-02-15T11:54:54.011Z,98736.75
2023-02-15T11:57:29.383Z,98726.16
2023-02-15T12:00:08.734Z,98735.31
2023-02-15T12:02:41.452Z,98730.41
2023-02-15T12:05:20.157Z,98727.97
2023-02-15T12:07:59.379Z,98721.94
2023-02-15T12:10:35.014Z,98712.09
2023-02-15T12:13:15.689Z,98718.59
2023-02-15T12:15:49.938Z,98713.84
2023-02-15T12:18:39.979Z,98708.38
2023-02-15T12:21:14.776Z,98710.81
2023-02-15T12:23:58.766Z,98707.03
2023-02-15T12:26:32.054Z,98699.03
2023-02-15T12:29:05.406Z,98694.56
2023-02-15T12:31:41.098Z,98699.41
2023-02-15T12:34:25.617Z,98693.13
2023-02-15T12:36:59.178Z,98697.06
2023-02-15T12:39:33.748Z,98706.38
2023-02-15T12:42:08.436Z,98698.63
2023-02-15T12:44:40.451Z,98690.56
2023-02-15T12:47:28.994Z,98692.56
2023-02-15T12:50:20.438Z,98691.28
2023-02-15T12:52:53.519Z,98687.78
2023-02-15T12:55:31.859Z,98681.69
2023-02-15T12:58:17.744Z,98683.75
2023-02-15T13:00:48.746Z,98675.53
2023-02-15T13:03:22.976Z,98677.75
2023-02-15T13:05:56.211Z,98674.22
2023-02-15T13:08:34.410Z,98687.69
2023-02-15T13:11:11.150Z,98683.81
2023-02-15T13:13:55.890Z,98684.00
2023-02-15T13:16:35.146Z,98687.75
2023-02-15T13:19:13.139Z,98685.13
2023-02-15T13:21:48.455Z,98690.00
2023-02-15T13:24:27.004Z,98687.28
2023-02-15T13:27:14.638Z,98678.63
2023-02-15T13:29:49.016Z,98685.19
2023-02-15T13:32:31.416Z,98690.25
2023-02-15T13:35:06.431Z,98686.13
2023-02-15T13:38:07.618Z,98681.09
2023-02-15T13:40:47.885Z,98688.44
2023-02-15T13:43:34.437Z,98695.16
2023-02-15T13:46:23.609Z,98690.19
2023-02-15T13:49:12.251Z,98681.97
2023-02-15T13:51:50.459Z,98693.22
2023-02-15T13:54:45.734Z,98688.88
2023-02-15T13:57:48.424Z,98683.09
2023-02-15T14:00:28.243Z,98687.13
2023-02-15T14:03:39.489Z,98686.56
2023-02-15T14:06:37.515Z,98689.16
2023-02-15T14:09:24.266Z,98687.44
2023-02-15T14:12:03.913Z,98689.25
2023-02-15T14:15:11.452Z,98685.47
2023-02-15T14:17:59.022Z,98687.38
2023-02-15T14:20:43.791Z,98692.19
2023-02-15T14:23:30.680Z,98694.13
2023-02-15T14:26:06.528Z,98685.06
2023-02-15T14:28:47.852Z,98689.56
2023-02-15T14:31:19.797Z,98696.44
2023-02-15T14:33:59.771Z,98690.00
2023-02-15T14:36:33.448Z,98691.81
2023-02-15T14:39:39.402Z,98684.16
2023-02-15T14:42:18.360Z,98692.81
2023-02-15T14:44:59.270Z,98689.78
2023-02-15T14:47:36.410Z,98688.44
2023-02-15T14:50:44.810Z,98689.22
2023-02-15T14:53:39.511Z,98685.97
2023-02-15T14:56:23.811Z,98694.41
2023-02-15T14:59:18.239Z,98702.53
2023-02-15T15:02:00.819Z,98695.84
2023-02-15T15:04:38.785Z,98687.25
2023-02-15T15:07:28.324Z,98684.16
2023-02-15T15:10:16.914Z,98682.28
2023-02-15T15:12:48.134Z,98671.56
2023-02-15T15:15:40.492Z,98666.97
2023-02-15T15:18:12.196Z,98673.94
2023-02-15T15:20:50.902Z,98673.19
2023-02-15T15:23:46.828Z,98676.00
2023-02-15T15:26:34.355Z,98670.41
2023-02-15T15:29:08.186Z,98669.41
2023-02-15T15:31:52.283Z,98676.28
2023-02-15T15:35:10.751Z,98668.44
2023-02-15T15:38:23.677Z,98669.44
2023-02-15T15:41:30.347Z,98664.84
2023-02-15T15:44:46.588Z,98665.97
2023-02-15T15:48:01.954Z,98673.69
2023-02-15T15:50:38.322Z,98657.63
2023-02-15T15:53:09.040Z,98657.00
2023-02-15T15:55:40.592Z,98654.53
2023-02-15T15:58:21.165Z,98657.56
2023-02-15T16:00:54.927Z,98656.41
2023-02-15T16:03:27.538Z,98655.06
2023-02-15T16:06:01.754Z,98658.44
2023-02-15T16:08:36.168Z,98653.63
2023-02-15T16:11:15.791Z,98660.28
2023-02-15T16:13:49.078Z,98655.75
2023-02-15T16:16:26.581Z,98655.31
2023-02-15T16:18:58.831Z,98664.88
2023-02-15T16:21:34.247Z,98661.06
2023-02-15T16:24:25.223Z,98658.78
2023-02-15T16:27:27.504Z,98654.50
2023-02-15T16:30:00.569Z,98658.38
2023-02-15T16:32:32.704Z,98659.47
2023-02-15T16:35:06.256Z,98660.72
2023-02-15T16:37:38.823Z,98665.06
2023-02-15T16:40:15.889Z,98657.34
2023-02-15T16:42:46.432Z,98654.59
2023-02-15T16:45:24.029Z,98660.31
2023-02-15T16:47:59.329Z,98662.16
2023-02-15T16:50:36.314Z,98656.44
2023-02-15T16:53:11.438Z,98655.53
2023-02-15T16:55:45.380Z,98655.66
2023-02-15T16:58:20.259Z,98660.13
2023-02-15T17:00:53.346Z,98655.81
2023-02-15T17:03:28.957Z,98662.47
2023-02-15T17:06:02.020Z,98655.38
2023-02-15T17:08:38.138Z,98657.38
2023-02-15T17:11:21.334Z,98662.16
2023-02-15T17:14:16.256Z,98654.56
2023-02-15T17:16:52.830Z,98658.53
2023-02-15T17:19:27.850Z,98656.69
2023-02-15T17:22:00.591Z,98660.41
2023-02-15T17:24:40.248Z,98653.88
2023-02-15T17:27:18.798Z,98658.44
2023-02-15T17:29:53.022Z,98656.31
2023-02-15T17:32:31.035Z,98661.91
2023-02-15T17:35:10.097Z,98663.03
2023-02-15T17:37:50.231Z,98656.06
2023-02-15T17:40:27.749Z,98664.88
2023-02-15T17:42:58.789Z,98659.44
2023-02-15T17:45:33.123Z,98664.53
2023-02-15T17:48:16.658Z,98665.31
2023-02-15T17:50:47.060Z,98670.00
2023-02-15T17:53:22.669Z,98676.66
2023-02-15T17:55:53.055Z,98668.00
2023-02-15T17:58:24.978Z,98672.00
2023-02-15T18:01:12.265Z,98664.03
2023-02-15T18:04:01.234Z,98661.84
2023-02-15T18:06:44.238Z,98665.03
2023-02-15T18:09:28.642Z,98666.41
2023-02-15T18:11:59.014Z,98672.81
2023-02-15T18:14:31.848Z,98672.81
2023-02-15T18:17:02.257Z,98667.56
2023-02-15T18:19:36.177Z,98673.19
2023-02-15T18:22:09.095Z,98668.56
2023-02-15T18:24:39.516Z,98679.47
2023-02-15T18:27:10.395Z,98672.06
2023-02-15T18:29:40.818Z,98675.09
2023-02-15T18:32:16.414Z,98671.41
2023-02-15T18:34:52.394Z,98673.06
2023-02-15T18:37:25.327Z,98674.53
2023-02-15T18:39:57.038Z,98677.72
2023-02-15T18:42:31.600Z,98676.94
2023-02-15T18:45:05.567Z,98678.16
2023-02-15T18:47:35.991Z,98669.88
2023-02-15T18:50:10.651Z,98683.38
2023-02-15T18:52:41.964Z,98687.16
2023-02-15T18:55:21.720Z,98678.94
2023-02-15T18:57:54.918Z,98676.75
2023-02-15T19:00:28.451Z,98682.72
2023-02-15T19:02:59.508Z,98680.72
2023-02-15T19:05:33.615Z,98679.94
2023-02-15T19:08:05.864Z,98672.19
2023-02-15T19:10:36.953Z,98676.75
2023-02-15T19:13:07.050Z,98678.53
2023-02-15T19:15:37.426Z,98671.56
2023-02-15T19:18:08.801Z,98673.75
2023-02-15T19:20:45.894Z,98657.16
2023-02-15T19:23:21.287Z,98665.88
2023-02-15T19:25:53.278Z,98655.38
2023-02-15T19:28:32.523Z,98657.63
2023-02-15T19:31:03.110Z,98655.94
2023-02-15T19:33:34.845Z,98653.31
2023-02-15T19:36:12.313Z,98651.97
2023-02-15T19:38:42.954Z,98646.22
2023-02-15T19:41:25.326Z,98644.56
2023-02-15T19:43:58.081Z,98642.91
2023-02-15T19:46:29.768Z,98640.69
2023-02-15T19:49:00.167Z,98641.59
2023-02-15T19:51:34.234Z,98637.28
2023-02-15T19:54:04.689Z,98635.50
2023-02-15T19:56:35.223Z,98633.06
2023-02-15T19:59:05.659Z,98632.72
2023-02-15T20:01:36.109Z,98629.19
2023-02-15T20:04:06.772Z,98630.19
2023-02-15T20:06:39.784Z,98623.56
2023-02-15T20:09:10.355Z,98631.97
2023-02-15T20:11:40.813Z,98630.75
2023-02-15T20:14:16.155Z,98627.97
2023-02-15T20:16:46.767Z,98625.00
2023-02-15T20:19:17.414Z,98627.34
2023-02-15T20:21:55.085Z,98620.25
2023-02-15T20:24:28.109Z,98622.81
2023-02-15T20:26:58.566Z,98625.34
2023-02-15T20:29:29.028Z,98624.78
2023-02-15T20:32:01.558Z,98621.91
2023-02-15T20:34:32.073Z,98615.06
2023-02-15T20:37:05.217Z,98619.56
2023-02-15T20:39:37.314Z,98621.75
2023-02-15T20:42:08.066Z,98618.53
2023-02-15T20:44:39.508Z,98619.53
2023-02-15T20:47:10.349Z,98614.34
2023-02-15T20:49:40.750Z,98611.13
2023-02-15T20:52:22.830Z,98608.91
2023-02-15T20:54:53.223Z,98619.53
2023-02-15T20:57:23.595Z,98621.31
2023-02-15T20:59:54.086Z,98611.69
2023-02-15T21:02:26.051Z,98614.81
2023-02-15T21:04:56.364Z,98612.28
2023-02-15T21:07:29.312Z,98615.81
2023-02-15T21:10:00.407Z,98607.97
2023-02-15T21:12:30.905Z,98619.88
2023-02-15T21:15:01.345Z,98623.94
2023-02-15T21:17:31.872Z,98618.41
2023-02-15T21:20:02.297Z,98611.56
2023-02-15T21:22:41.128Z,98604.47
2023-02-15T21:25:18.641Z,98615.53
2023-02-15T21:27:48.977Z,98608.00
2023-02-15T21:30:22.489Z,98595.84
2023-02-15T21:32:53.355Z,98595.22
2023-02-15T21:35:24.915Z,98595.44
2023-02-15T21:37:58.026Z,98593.91
2023-02-15T21:40:32.071Z,98596.00
2023-02-15T21:43:14.990Z,98596.09
2023-02-15T21:45:58.323Z,98591.44
2023-02-15T21:48:31.790Z,98591.03
2023-02-15T21:51:14.658Z,98591.53
2023-02-15T21:53:49.617Z,98586.56
2023-02-15T21:56:24.480Z,98592.84
2023-02-15T21:58:55.039Z,98589.56
2023-02-15T22:01:28.307Z,98591.88
2023-02-15T22:04:01.250Z,98587.81
2023-02-15T22:06:31.746Z,98586.28
2023-02-15T22:09:04.833Z,98585.78
2023-02-15T22:11:35.196Z,98582.56
2023-02-15T22:14:05.551Z,98586.88
2023-02-15T22:16:35.949Z,98586.97
2023-02-15T22:19:06.369Z,98590.59
2023-02-15T22:21:36.747Z,98592.69
2023-02-15T22:24:10.153Z,98591.91
2023-02-15T22:26:40.587Z,98590.78
2023-02-15T22:29:17.146Z,98589.69
2023-02-15T22:31:49.344Z,98587.47
2023-02-15T22:34:29.709Z,98585.91
2023-02-15T22:37:03.320Z,98580.06
2023-02-15T22:39:36.306Z,98590.00
2023-02-15T22:42:07.066Z,98591.09
2023-02-15T22:44:38.396Z,98587.47
2023-02-15T22:47:08.966Z,98586.00
2023-02-15T22:49:39.379Z,98585.31
2023-02-15T22:52:13.331Z,98585.50
2023-02-15T22:54:46.225Z,98583.41
2023-02-15T22:57:22.691Z,98585.97
2023-02-15T22:59:53.162Z,98589.16
2023-02-15T23:02:23.563Z,98590.91
2023-02-15T23:04:54.001Z,98594.50
2023-02-15T23:07:24.504Z,98592.69
2023-02-15T23:09:57.509Z,98594.94
2023-02-15T23:12:51.785Z,98597.09
2023-02-15T23:15:22.307Z,98583.78
2023-02-15T23:17:52.649Z,98595.13
2023-02-15T23:20:23.037Z,98595.31
2023-02-15T23:22:53.497Z,98600.03
2023-02-15T23:25:28.177Z,98597.63
2023-02-15T23:28:01.105Z,98605.66
2023-02-15T23:30:31.482Z,98606.66
2023-02-15T23:33:01.895Z,98601.31
2023-02-15T23:35:32.186Z,98600.97
2023-02-15T23:38:02.472Z,98603.91
2023-02-15T23:40:47.812Z,98607.25
2023-02-15T23:43:25.337Z,98598.56
2023-02-15T23:45:55.685Z,98598.56
2023-02-15T23:48:33.999Z,98594.69
2023-02-15T23:51:05.115Z,98600.63
2023-02-15T23:53:36.485Z,98607.59
2023-02-15T23:56:10.068Z,98596.72
2023-02-15T23:58:45.385Z,98597.66
